AirNav   Air Wisconsin Up To $57,000 Bonus
 
 936 users online  

MI79 Executive Heliport
Plymouth/Canton, Michigan, USA

GOING TO PLYMOUTH/CANTON?


FAA INFORMATION EFFECTIVE 07 NOVEMBER 2019

Location

FAA Identifier: MI79
Lat/Long: 42-20-53.0000N 083-27-14.0000W
42-20.883333N 083-27.233333W
42.3480556,-83.4538889
(estimated)
Elevation: 690 ft. / 210 m (estimated)
Variation: 06W (1990)
From city: 1 mile SE of central business district of the associated city
Time zone: UTC -5 (UTC -4 during Daylight Saving Time)
Zip code: 48187

Heliport Operations

Heliport use: Private use. Permission required prior to landing
Activation date: 03/1993
Control tower: no
ARTCC: CLEVELAND CENTER
FSS: LANSING FLIGHT SERVICE STATION
Attendance: MON-FRI 1800-0000
Segmented circle: no

Heliport Communications

WX ASOS at YIP (7 nm SW): PHONE 734-961-6843
WX ASOS at DTW (9 nm SE): PHONE 734-955-5015
WX ASOS at ARB (15 nm SW): PHONE 734-668-7173
WX AWOS-3 at VLL (17 nm NE): 119.475 (248-288-4649)
WX ASOS at PTK (19 nm N): 125.025 (248-886-8551)
WX AWOS-3 at ONZ (20 nm SE): 119.675 (734-692-9686)
  • ADDITIONAL UNICOM FREQUENCY: 122.750 / 123.025

Nearby radio navigation aids

VOR radial/distance  VOR name  Freq  Var
SVMr123/7.2SALEM VORTAC114.3003W
DXOr340/9.0DETROIT VOR/DME113.4006W
CRLr004/18.0CARLETON VOR/DME115.7003W
YQGr288/28.4WINDSOR VOR/DME113.8006W
FNTr167/39.3FLINT VORTAC116.9006W

 
NDB name  Hdg/Dist  Freq  Var  ID
GROSSE ILE325/20.041907WRYS .-. -.-- ...
TECUMSEH052/26.923906WTCU - -.-. ..-
ADRIAN050/39.927806WADG .- -.. --.

Heliport Services

Fuel available: A

Runway Information

Helipad H1

Dimensions: 180 x 180 ft. / 55 x 55 m
Surface: concrete
Traffic pattern: leftleft

Heliport Ownership and Management from official FAA records

Ownership: Privately-owned
Owner: MC MAHON HELICOPTERS
8351 RONDA DR
CANTON, MI 48187
Phone (734) 459-5980
Manager: NICK MC MAHON
8351 RONDA DR
CANTON, MI 48187
Phone (734) 459-5980
OTHER CONTACT: NICK MCMAHON

Heliport Operational Statistics

Aircraft based on the field: 4
Helicopters: 4
    

Additional Remarks

FOR CD CTC DETROIT APCH AT 800-499-8181.

Instrument Procedures

There are no published instrument procedures at MI79.

Some nearby airports with instrument procedures:

1D2 - Canton-Plymouth-Mettetal Airport (0 nm W)
KYIP - Willow Run Airport (7 nm SW)
KDTW - Detroit Metropolitan Wayne County Airport (9 nm SE)
Y47 - Oakland Southwest Airport (12 nm NW)
KARB - Ann Arbor Municipal Airport (15 nm SW)
KVLL - Oakland/Troy Airport (17 nm NE)
KPTK - Oakland County International Airport (19 nm N)
KONZ - Grosse Ile Municipal Airport (20 nm SE)
 
Loc | Ops | Rwys | IFR | FBO | Links
Com | Nav | Svcs | Stats | Notes
Area around MI79 (Executive Heliport)
 
Road maps at: MapQuest Bing Google
 
Aerial photo
No photo
 
Sectional chart

 
Airport distance calculator
Flying to Executive Heliport? Find the distance to fly.

From to MI79

Sunrise and sunset
Times for 13-Nov-2019
 Local
(UTC-5)
 Zulu
(UTC)
Morning civil twilight06:5311:53
Sunrise07:2312:23
Sunset17:1322:13
Evening civil twilight17:4322:43

Current date and time
Zulu (UTC)  13-Nov-2019 23:39:17
Local (UTC-5)  13-Nov-2019 18:39:17
 
METAR
KYIP 
8nm SW 
132253Z 17009KT 10SM CLR M06/M11 A3018 RMK AO2 SLP232 T10561111
KDTW 
9nm SE 
132253Z 17009KT 9SM FEW100 OVC150 M06/M10 A3020 RMK AO2 SLP237 T10561100
KARB 
15nm SW 
734-668-7173
132253Z 18008KT 10SM CLR M07/M12 A3016 RMK AO2 SLP230 T10671122
KVLL 
17nm NE 
132315Z AUTO 17008G15KT 10SM SCT120 M05/M09 A3019 RMK AO2 T10501094
KPTK 
19nm N 
132253Z 17008G17KT 140V200 10SM OVC140 M07/M13 A3014 RMK AO2 SLP225 T10671128
KDET 
20nm E 
132253Z 19009KT 10SM CLR M05/M11 A3020 RMK AO2 SLP238 T10501106
TAF
KYIP 
8nm SW 
131720Z 1318/1418 19011KT P6SM OVC120 FM140200 20007KT P6SM OVC060
KDTW 
9nm SE 
131720Z 1318/1424 19011KT P6SM OVC120 FM140200 20007KT P6SM OVC060 FM142000 23006KT 5SM BR OVC020
KPTK 
19nm N 
131720Z 1318/1418 19011KT P6SM OVC120 FM140200 20007KT P6SM OVC030 PROB30 1407/1410 6SM -SHSN
KDET 
20nm E 
131720Z 1318/1418 19011KT P6SM OVC120 FM140200 20007KT P6SM OVC060
NOTAMs
Click for the latest NOTAMs
NOTAMs are issued by the DoD/FAA and will open in a separate window not controlled by AirNav.

 

 
 

Would you like to see your business listed on this page?

 If your business provides an interesting product or service to pilots, flight crews, aircraft, or users of the Executive Heliport, you should consider listing it here.  To start the listing process, click on the button below
 
Add a business
 

Other Pages about Executive Heliport

Update a link
 
Copyright © AirNav, LLC. All rights reserved. Privacy Policy  Contact